sensor_id;sensor_type;location;lat;lon;timestamp;temperature;humidity
73683;DHT22;72538;48.146;11.740;2023-08-30T00:00:52;12.70;99.90
73683;DHT22;72538;48.146;11.740;2023-08-30T00:03:18;12.70;99.90
73683;DHT22;72538;48.146;11.740;2023-08-30T00:05:44;12.70;99.90
73683;DHT22;72538;48.146;11.740;2023-08-30T00:08:10;12.70;99.90
73683;DHT22;72538;48.146;11.740;2023-08-30T00:10:36;12.70;99.90
73683;DHT22;72538;48.146;11.740;2023-08-30T00:13:03;12.70;99.90
73683;DHT22;72538;48.146;11.740;2023-08-30T00:15:29;12.70;99.90
73683;DHT22;72538;48.146;11.740;2023-08-30T00:17:55;12.70;99.90
73683;DHT22;72538;48.146;11.740;2023-08-30T00:20:21;12.70;99.90
73683;DHT22;72538;48.146;11.740;2023-08-30T00:22:47;12.70;99.90
73683;DHT22;72538;48.146;11.740;2023-08-30T00:25:16;12.70;99.90
73683;DHT22;72538;48.146;11.740;2023-08-30T00:27:42;12.70;99.90
73683;DHT22;72538;48.146;11.740;2023-08-30T00:30:09;12.70;99.90
73683;DHT22;72538;48.146;11.740;2023-08-30T00:32:35;12.70;99.90
73683;DHT22;72538;48.146;11.740;2023-08-30T00:35:01;12.70;99.90
73683;DHT22;72538;48.146;11.740;2023-08-30T00:37:27;12.60;99.90
73683;DHT22;72538;48.146;11.740;2023-08-30T00:39:53;12.60;99.90
73683;DHT22;72538;48.146;11.740;2023-08-30T00:42:19;12.60;99.90
73683;DHT22;72538;48.146;11.740;2023-08-30T00:44:44;12.60;99.90
73683;DHT22;72538;48.146;11.740;2023-08-30T00:47:10;12.60;99.90
73683;DHT22;72538;48.146;11.740;2023-08-30T00:49:36;12.60;99.90
73683;DHT22;72538;48.146;11.740;2023-08-30T00:52:06;12.60;99.90
73683;DHT22;72538;48.146;11.740;2023-08-30T00:54:30;12.70;99.90
73683;DHT22;72538;48.146;11.740;2023-08-30T00:56:56;12.60;99.90
73683;DHT22;72538;48.146;11.740;2023-08-30T00:59:24;12.60;99.90
73683;DHT22;72538;48.146;11.740;2023-08-30T01:01:50;12.60;99.90
73683;DHT22;72538;48.146;11.740;2023-08-30T01:04:16;12.60;99.90
73683;DHT22;72538;48.146;11.740;2023-08-30T01:06:43;12.50;99.90
73683;DHT22;72538;48.146;11.740;2023-08-30T01:09:09;12.50;99.90
73683;DHT22;72538;48.146;11.740;2023-08-30T01:12:12;12.50;99.90
73683;DHT22;72538;48.146;11.740;2023-08-30T01:14:58;12.50;99.90
73683;DHT22;72538;48.146;11.740;2023-08-30T01:17:21;12.50;99.90
73683;DHT22;72538;48.146;11.740;2023-08-30T01:19:58;12.50;99.90
73683;DHT22;72538;48.146;11.740;2023-08-30T01:28:19;12.40;99.90
73683;DHT22;72538;48.146;11.740;2023-08-30T01:30:45;12.40;99.90
73683;DHT22;72538;48.146;11.740;2023-08-30T01:33:13;12.30;99.90
73683;DHT22;72538;48.146;11.740;2023-08-30T01:35:41;12.30;99.90
73683;DHT22;72538;48.146;11.740;2023-08-30T01:38:08;12.30;99.90
73683;DHT22;72538;48.146;11.740;2023-08-30T01:40:37;12.30;99.90
73683;DHT22;72538;48.146;11.740;2023-08-30T01:43:05;12.30;99.90
73683;DHT22;72538;48.146;11.740;2023-08-30T01:45:42;12.40;99.90
73683;DHT22;72538;48.146;11.740;2023-08-30T01:48:06;12.40;99.90
73683;DHT22;72538;48.146;11.740;2023-08-30T01:50:34;12.40;99.90
73683;DHT22;72538;48.146;11.740;2023-08-30T01:53:00;12.50;99.90
73683;DHT22;72538;48.146;11.740;2023-08-30T01:55:28;12.40;99.90
73683;DHT22;72538;48.146;11.740;2023-08-30T01:57:55;12.40;99.90
73683;DHT22;72538;48.146;11.740;2023-08-30T02:00:21;12.40;99.90
73683;DHT22;72538;48.146;11.740;2023-08-30T02:02:48;12.40;99.90
73683;DHT22;72538;48.146;11.740;2023-08-30T02:05:13;12.40;99.90
73683;DHT22;72538;48.146;11.740;2023-08-30T02:10:34;12.30;99.90
73683;DHT22;72538;48.146;11.740;2023-08-30T02:13:01;12.30;99.90
73683;DHT22;72538;48.146;11.740;2023-08-30T02:15:30;12.30;99.90
73683;DHT22;72538;48.146;11.740;2023-08-30T02:17:57;12.30;99.90
73683;DHT22;72538;48.146;11.740;2023-08-30T02:20:23;12.40;99.90
73683;DHT22;72538;48.146;11.740;2023-08-30T02:22:50;12.40;99.90
73683;DHT22;72538;48.146;11.740;2023-08-30T02:25:15;12.40;99.90
73683;DHT22;72538;48.146;11.740;2023-08-30T02:27:41;12.40;99.90
73683;DHT22;72538;48.146;11.740;2023-08-30T02:30:07;12.40;99.90
73683;DHT22;72538;48.146;11.740;2023-08-30T02:32:33;12.40;99.90
73683;DHT22;72538;48.146;11.740;2023-08-30T02:34:59;12.40;99.90
73683;DHT22;72538;48.146;11.740;2023-08-30T02:37:25;12.40;99.90
73683;DHT22;72538;48.146;11.740;2023-08-30T02:39:51;12.30;99.90
73683;DHT22;72538;48.146;11.740;2023-08-30T02:42:17;12.30;99.90
73683;DHT22;72538;48.146;11.740;2023-08-30T02:44:43;12.30;99.90
73683;DHT22;72538;48.146;11.740;2023-08-30T02:47:08;12.30;99.90
73683;DHT22;72538;48.146;11.740;2023-08-30T02:49:34;12.30;99.90
73683;DHT22;72538;48.146;11.740;2023-08-30T02:52:00;12.30;99.90
73683;DHT22;72538;48.146;11.740;2023-08-30T02:54:25;12.30;99.90
73683;DHT22;72538;48.146;11.740;2023-08-30T02:56:51;12.30;99.90
73683;DHT22;72538;48.146;11.740;2023-08-30T02:59:17;12.30;99.90
73683;DHT22;72538;48.146;11.740;2023-08-30T03:01:43;12.30;99.90
73683;DHT22;72538;48.146;11.740;2023-08-30T03:04:09;12.40;99.90
73683;DHT22;72538;48.146;11.740;2023-08-30T03:06:35;12.40;99.90
73683;DHT22;72538;48.146;11.740;2023-08-30T03:09:02;12.40;99.90
73683;DHT22;72538;48.146;11.740;2023-08-30T03:11:32;12.50;99.90
73683;DHT22;72538;48.146;11.740;2023-08-30T03:13:57;12.50;99.90
73683;DHT22;72538;48.146;11.740;2023-08-30T03:16:23;12.50;99.90
73683;DHT22;72538;48.146;11.740;2023-08-30T03:18:49;12.60;99.90
73683;DHT22;72538;48.146;11.740;2023-08-30T03:21:16;12.50;99.90
73683;DHT22;72538;48.146;11.740;2023-08-30T03:23:42;12.50;99.90
73683;DHT22;72538;48.146;11.740;2023-08-30T03:26:16;12.50;99.90
73683;DHT22;72538;48.146;11.740;2023-08-30T03:28:39;12.50;99.90
73683;DHT22;72538;48.146;11.740;2023-08-30T03:31:18;12.50;99.90
73683;DHT22;72538;48.146;11.740;2023-08-30T03:33:40;12.50;99.90
73683;DHT22;72538;48.146;11.740;2023-08-30T03:36:09;12.50;99.90
73683;DHT22;72538;48.146;11.740;2023-08-30T03:38:35;12.50;99.90
73683;DHT22;72538;48.146;11.740;2023-08-30T03:41:02;12.40;99.90
73683;DHT22;72538;48.146;11.740;2023-08-30T03:43:28;12.40;99.90
73683;DHT22;72538;48.146;11.740;2023-08-30T03:45:54;12.30;99.90
73683;DHT22;72538;48.146;11.740;2023-08-30T03:48:20;12.40;99.90
73683;DHT22;72538;48.146;11.740;2023-08-30T03:50:46;12.30;99.90
73683;DHT22;72538;48.146;11.740;2023-08-30T03:53:11;12.30;99.90
73683;DHT22;72538;48.146;11.740;2023-08-30T03:55:37;12.30;99.90
73683;DHT22;72538;48.146;11.740;2023-08-30T03:58:03;12.30;99.90
73683;DHT22;72538;48.146;11.740;2023-08-30T04:00:29;12.30;99.90
73683;DHT22;72538;48.146;11.740;2023-08-30T04:02:55;12.30;99.90
73683;DHT22;72538;48.146;11.740;2023-08-30T04:05:20;12.30;99.90
73683;DHT22;72538;48.146;11.740;2023-08-30T04:07:46;12.30;99.90
73683;DHT22;72538;48.146;11.740;2023-08-30T04:10:12;12.40;99.90
73683;DHT22;72538;48.146;11.740;2023-08-30T04:12:37;12.40;99.90
73683;DHT22;72538;48.146;11.740;2023-08-30T04:15:04;12.30;99.90
73683;DHT22;72538;48.146;11.740;2023-08-30T04:17:31;12.30;99.90
73683;DHT22;72538;48.146;11.740;2023-08-30T04:19:57;12.30;99.90
73683;DHT22;72538;48.146;11.740;2023-08-30T04:22:23;12.30;99.90
73683;DHT22;72538;48.146;11.740;2023-08-30T04:24:49;12.40;99.90
73683;DHT22;72538;48.146;11.740;2023-08-30T04:27:15;12.50;99.90
73683;DHT22;72538;48.146;11.740;2023-08-30T04:29:41;12.50;99.90
73683;DHT22;72538;48.146;11.740;2023-08-30T04:32:08;12.50;99.90
73683;DHT22;72538;48.146;11.740;2023-08-30T04:34:34;12.50;99.90
73683;DHT22;72538;48.146;11.740;2023-08-30T04:37:00;12.50;99.90
73683;DHT22;72538;48.146;11.740;2023-08-30T04:39:25;12.50;99.90
73683;DHT22;72538;48.146;11.740;2023-08-30T04:41:51;12.50;99.90
73683;DHT22;72538;48.146;11.740;2023-08-30T04:44:17;12.60;99.90
73683;DHT22;72538;48.146;11.740;2023-08-30T04:46:45;12.60;99.90
73683;DHT22;72538;48.146;11.740;2023-08-30T04:49:10;12.60;99.90
73683;DHT22;72538;48.146;11.740;2023-08-30T04:51:36;12.50;99.90
73683;DHT22;72538;48.146;11.740;2023-08-30T04:54:02;12.60;99.90
73683;DHT22;72538;48.146;11.740;2023-08-30T04:56:28;12.60;99.90
73683;DHT22;72538;48.146;11.740;2023-08-30T04:58:54;12.60;99.90
73683;DHT22;72538;48.146;11.740;2023-08-30T05:01:20;12.60;99.90
73683;DHT22;72538;48.146;11.740;2023-08-30T05:03:46;12.60;99.90
73683;DHT22;72538;48.146;11.740;2023-08-30T05:06:12;12.60;99.90
73683;DHT22;72538;48.146;11.740;2023-08-30T05:08:40;12.60;99.90
73683;DHT22;72538;48.146;11.740;2023-08-30T05:11:07;12.60;99.90
73683;DHT22;72538;48.146;11.740;2023-08-30T05:13:33;12.60;99.90
73683;DHT22;72538;48.146;11.740;2023-08-30T05:15:59;12.60;99.90
73683;DHT22;72538;48.146;11.740;2023-08-30T05:18:25;12.70;99.90
73683;DHT22;72538;48.146;11.740;2023-08-30T05:20:50;12.70;99.90
73683;DHT22;72538;48.146;11.740;2023-08-30T05:23:16;12.80;99.90
73683;DHT22;72538;48.146;11.740;2023-08-30T05:25:42;12.80;99.90
73683;DHT22;72538;48.146;11.740;2023-08-30T05:28:08;12.80;99.90
73683;DHT22;72538;48.146;11.740;2023-08-30T05:30:33;12.80;99.90
73683;DHT22;72538;48.146;11.740;2023-08-30T05:32:59;12.90;99.90
73683;DHT22;72538;48.146;11.740;2023-08-30T05:35:25;12.90;99.90
73683;DHT22;72538;48.146;11.740;2023-08-30T05:37:50;12.80;99.90
73683;DHT22;72538;48.146;11.740;2023-08-30T05:40:17;12.90;99.90
73683;DHT22;72538;48.146;11.740;2023-08-30T05:42:43;12.80;99.90
73683;DHT22;72538;48.146;11.740;2023-08-30T05:45:10;12.80;99.90
73683;DHT22;72538;48.146;11.740;2023-08-30T05:47:36;12.80;99.90
73683;DHT22;72538;48.146;11.740;2023-08-30T05:50:03;12.90;99.90
73683;DHT22;72538;48.146;11.740;2023-08-30T05:52:28;13.00;99.90
73683;DHT22;72538;48.146;11.740;2023-08-30T05:54:54;13.00;99.90
73683;DHT22;72538;48.146;11.740;2023-08-30T05:57:20;13.00;99.90
73683;DHT22;72538;48.146;11.740;2023-08-30T05:59:47;13.00;99.90
73683;DHT22;72538;48.146;11.740;2023-08-30T06:02:13;13.10;99.90
73683;DHT22;72538;48.146;11.740;2023-08-30T06:04:39;13.10;99.90
73683;DHT22;72538;48.146;11.740;2023-08-30T06:07:05;13.10;99.90
73683;DHT22;72538;48.146;11.740;2023-08-30T06:09:30;13.20;99.90
73683;DHT22;72538;48.146;11.740;2023-08-30T06:11:56;13.20;99.90
73683;DHT22;72538;48.146;11.740;2023-08-30T06:14:22;13.20;99.90
73683;DHT22;72538;48.146;11.740;2023-08-30T06:16:47;13.20;99.90
73683;DHT22;72538;48.146;11.740;2023-08-30T06:19:14;13.30;99.90
73683;DHT22;72538;48.146;11.740;2023-08-30T06:21:40;13.30;99.90
73683;DHT22;72538;48.146;11.740;2023-08-30T06:24:06;13.30;99.90
73683;DHT22;72538;48.146;11.740;2023-08-30T06:26:31;13.30;99.90
73683;DHT22;72538;48.146;11.740;2023-08-30T06:28:58;13.40;99.90
73683;DHT22;72538;48.146;11.740;2023-08-30T06:31:24;13.40;99.90
73683;DHT22;72538;48.146;11.740;2023-08-30T06:33:51;13.40;99.90
73683;DHT22;72538;48.146;11.740;2023-08-30T06:36:17;13.40;99.90
73683;DHT22;72538;48.146;11.740;2023-08-30T06:38:44;13.50;99.90
73683;DHT22;72538;48.146;11.740;2023-08-30T06:41:11;13.50;99.90
73683;DHT22;72538;48.146;11.740;2023-08-30T06:43:37;13.60;99.90
73683;DHT22;72538;48.146;11.740;2023-08-30T06:46:02;13.60;99.90
73683;DHT22;72538;48.146;11.740;2023-08-30T06:48:28;13.60;99.90
73683;DHT22;72538;48.146;11.740;2023-08-30T06:50:59;13.60;99.90
73683;DHT22;72538;48.146;11.740;2023-08-30T06:53:27;13.70;99.90
73683;DHT22;72538;48.146;11.740;2023-08-30T06:55:58;13.70;99.90
73683;DHT22;72538;48.146;11.740;2023-08-30T06:58:24;13.70;99.90
73683;DHT22;72538;48.146;11.740;2023-08-30T07:00:50;13.80;99.90
73683;DHT22;72538;48.146;11.740;2023-08-30T07:03:16;13.80;99.90
73683;DHT22;72538;48.146;11.740;2023-08-30T07:05:42;13.90;99.90
73683;DHT22;72538;48.146;11.740;2023-08-30T07:08:09;13.90;99.90
73683;DHT22;72538;48.146;11.740;2023-08-30T07:10:35;13.90;99.90
73683;DHT22;72538;48.146;11.740;2023-08-30T07:13:01;13.90;99.90
73683;DHT22;72538;48.146;11.740;2023-08-30T07:15:27;13.90;99.90
73683;DHT22;72538;48.146;11.740;2023-08-30T07:17:53;14.00;99.90
73683;DHT22;72538;48.146;11.740;2023-08-30T07:20:19;14.00;99.90
73683;DHT22;72538;48.146;11.740;2023-08-30T07:22:46;14.10;99.90
73683;DHT22;72538;48.146;11.740;2023-08-30T07:25:12;14.20;99.90
73683;DHT22;72538;48.146;11.740;2023-08-30T07:27:39;14.30;99.90
73683;DHT22;72538;48.146;11.740;2023-08-30T07:30:06;14.50;99.90
73683;DHT22;72538;48.146;11.740;2023-08-30T07:32:31;14.60;99.90
73683;DHT22;72538;48.146;11.740;2023-08-30T07:34:57;14.60;99.90
73683;DHT22;72538;48.146;11.740;2023-08-30T07:37:25;14.70;99.90
73683;DHT22;72538;48.146;11.740;2023-08-30T07:40:11;14.70;99.90
73683;DHT22;72538;48.146;11.740;2023-08-30T07:42:37;14.70;99.90
73683;DHT22;72538;48.146;11.740;2023-08-30T07:45:04;14.70;99.90
73683;DHT22;72538;48.146;11.740;2023-08-30T07:47:30;14.60;99.90
73683;DHT22;72538;48.146;11.740;2023-08-30T07:49:56;14.60;99.90
73683;DHT22;72538;48.146;11.740;2023-08-30T07:52:21;14.70;99.90
73683;DHT22;72538;48.146;11.740;2023-08-30T07:54:47;14.60;99.90
73683;DHT22;72538;48.146;11.740;2023-08-30T07:57:13;14.70;99.90
73683;DHT22;72538;48.146;11.740;2023-08-30T07:59:39;14.70;99.90
73683;DHT22;72538;48.146;11.740;2023-08-30T08:02:06;14.80;99.90
73683;DHT22;72538;48.146;11.740;2023-08-30T08:04:34;14.90;99.90
73683;DHT22;72538;48.146;11.740;2023-08-30T08:07:00;15.00;99.90
73683;DHT22;72538;48.146;11.740;2023-08-30T08:09:26;15.10;99.90
73683;DHT22;72538;48.146;11.740;2023-08-30T08:11:51;15.10;99.90
73683;DHT22;72538;48.146;11.740;2023-08-30T08:14:17;15.20;99.90
73683;DHT22;72538;48.146;11.740;2023-08-30T08:16:43;15.30;99.90
73683;DHT22;72538;48.146;11.740;2023-08-30T08:19:09;15.30;99.90
73683;DHT22;72538;48.146;11.740;2023-08-30T08:21:34;15.10;99.90
73683;DHT22;72538;48.146;11.740;2023-08-30T08:24:00;15.10;99.90
73683;DHT22;72538;48.146;11.740;2023-08-30T08:26:27;15.00;99.90
73683;DHT22;72538;48.146;11.740;2023-08-30T08:28:57;15.00;99.90
73683;DHT22;72538;48.146;11.740;2023-08-30T08:31:23;15.00;99.90
73683;DHT22;72538;48.146;11.740;2023-08-30T08:34:10;15.00;99.90
73683;DHT22;72538;48.146;11.740;2023-08-30T08:36:37;14.90;99.90
73683;DHT22;72538;48.146;11.740;2023-08-30T08:39:04;14.90;99.90
73683;DHT22;72538;48.146;11.740;2023-08-30T08:41:35;14.90;99.90
73683;DHT22;72538;48.146;11.740;2023-08-30T08:44:04;15.00;99.90
73683;DHT22;72538;48.146;11.740;2023-08-30T08:46:31;15.10;99.90
73683;DHT22;72538;48.146;11.740;2023-08-30T08:48:58;15.10;99.90
73683;DHT22;72538;48.146;11.740;2023-08-30T08:51:26;15.10;99.90
73683;DHT22;72538;48.146;11.740;2023-08-30T08:53:52;15.20;99.90
73683;DHT22;72538;48.146;11.740;2023-08-30T08:56:20;15.20;99.90
73683;DHT22;72538;48.146;11.740;2023-08-30T08:58:47;15.20;99.90
73683;DHT22;72538;48.146;11.740;2023-08-30T09:01:14;15.30;99.90
73683;DHT22;72538;48.146;11.740;2023-08-30T09:03:40;15.50;99.90
73683;DHT22;72538;48.146;11.740;2023-08-30T09:06:06;15.70;99.90
73683;DHT22;72538;48.146;11.740;2023-08-30T09:08:32;16.00;99.90
73683;DHT22;72538;48.146;11.740;2023-08-30T09:10:57;16.20;99.90
73683;DHT22;72538;48.146;11.740;2023-08-30T09:13:23;16.60;99.90
73683;DHT22;72538;48.146;11.740;2023-08-30T09:15:49;17.10;99.90
73683;DHT22;72538;48.146;11.740;2023-08-30T09:18:16;17.80;99.90
73683;DHT22;72538;48.146;11.740;2023-08-30T09:20:42;18.40;99.90
73683;DHT22;72538;48.146;11.740;2023-08-30T09:23:21;18.80;99.90
73683;DHT22;72538;48.146;11.740;2023-08-30T09:25:47;18.80;99.90
73683;DHT22;72538;48.146;11.740;2023-08-30T09:28:15;19.00;99.90
73683;DHT22;72538;48.146;11.740;2023-08-30T09:30:40;19.20;99.90
73683;DHT22;72538;48.146;11.740;2023-08-30T09:33:06;19.20;99.90
73683;DHT22;72538;48.146;11.740;2023-08-30T09:35:32;19.20;98.70
73683;DHT22;72538;48.146;11.740;2023-08-30T09:37:57;19.20;99.20
73683;DHT22;72538;48.146;11.740;2023-08-30T09:40:23;19.50;98.10
73683;DHT22;72538;48.146;11.740;2023-08-30T09:42:49;19.70;98.10
73683;DHT22;72538;48.146;11.740;2023-08-30T09:45:24;20.20;97.90
73683;DHT22;72538;48.146;11.740;2023-08-30T09:47:51;20.50;96.30
73683;DHT22;72538;48.146;11.740;2023-08-30T09:50:20;20.60;94.60
73683;DHT22;72538;48.146;11.740;2023-08-30T09:52:49;20.50;96.30
73683;DHT22;72538;48.146;11.740;2023-08-30T09:55:18;20.70;95.40
73683;DHT22;72538;48.146;11.740;2023-08-30T09:57:44;21.20;92.80
73683;DHT22;72538;48.146;11.740;2023-08-30T10:00:11;21.10;93.10
73683;DHT22;72538;48.146;11.740;2023-08-30T10:02:41;20.90;93.00
73683;DHT22;72538;48.146;11.740;2023-08-30T10:05:12;20.70;92.80
73683;DHT22;72538;48.146;11.740;2023-08-30T10:07:41;20.30;91.60
73683;DHT22;72538;48.146;11.740;2023-08-30T10:10:10;20.10;92.00
73683;DHT22;72538;48.146;11.740;2023-08-30T10:12:37;19.80;94.20
73683;DHT22;72538;48.146;11.740;2023-08-30T10:15:05;19.80;94.00
73683;DHT22;72538;48.146;11.740;2023-08-30T10:17:32;20.00;93.80
73683;DHT22;72538;48.146;11.740;2023-08-30T10:20:07;19.90;94.60
73683;DHT22;72538;48.146;11.740;2023-08-30T10:22:32;20.30;95.30
73683;DHT22;72538;48.146;11.740;2023-08-30T10:25:02;20.80;93.20
73683;DHT22;72538;48.146;11.740;2023-08-30T10:27:31;21.00;90.80
73683;DHT22;72538;48.146;11.740;2023-08-30T10:30:01;21.00;90.90
73683;DHT22;72538;48.146;11.740;2023-08-30T10:32:27;21.20;92.20
73683;DHT22;72538;48.146;11.740;2023-08-30T10:34:52;21.70;90.10
73683;DHT22;72538;48.146;11.740;2023-08-30T10:37:26;21.90;87.70
73683;DHT22;72538;48.146;11.740;2023-08-30T10:39:52;21.30;85.70
73683;DHT22;72538;48.146;11.740;2023-08-30T10:42:22;21.00;88.10
73683;DHT22;72538;48.146;11.740;2023-08-30T10:44:56;20.80;90.70
73683;DHT22;72538;48.146;11.740;2023-08-30T10:47:23;20.80;90.30
73683;DHT22;72538;48.146;11.740;2023-08-30T10:49:53;21.00;91.10
73683;DHT22;72538;48.146;11.740;2023-08-30T10:52:21;21.30;90.70
73683;DHT22;72538;48.146;11.740;2023-08-30T10:54:47;21.90;85.70
73683;DHT22;72538;48.146;11.740;2023-08-30T10:57:14;22.60;83.30
73683;DHT22;72538;48.146;11.740;2023-08-30T10:59:47;22.90;84.80
73683;DHT22;72538;48.146;11.740;2023-08-30T11:02:09;23.20;79.00
73683;DHT22;72538;48.146;11.740;2023-08-30T11:04:39;24.00;74.00
73683;DHT22;72538;48.146;11.740;2023-08-30T11:07:05;24.60;69.60
73683;DHT22;72538;48.146;11.740;2023-08-30T11:09:31;24.70;66.30
73683;DHT22;72538;48.146;11.740;2023-08-30T11:12:04;25.00;66.50
73683;DHT22;72538;48.146;11.740;2023-08-30T11:14:28;25.90;66.10
73683;DHT22;72538;48.146;11.740;2023-08-30T11:16:55;25.50;63.30
73683;DHT22;72538;48.146;11.740;2023-08-30T11:19:20;25.30;68.10
73683;DHT22;72538;48.146;11.740;2023-08-30T11:21:46;26.00;66.30
73683;DHT22;72538;48.146;11.740;2023-08-30T11:24:12;26.40;63.60
73683;DHT22;72538;48.146;11.740;2023-08-30T11:26:38;26.20;64.10
73683;DHT22;72538;48.146;11.740;2023-08-30T11:29:05;25.50;62.40
73683;DHT22;72538;48.146;11.740;2023-08-30T11:31:31;24.90;67.00
73683;DHT22;72538;48.146;11.740;2023-08-30T11:33:59;24.60;65.50
73683;DHT22;72538;48.146;11.740;2023-08-30T11:36:34;24.50;69.20
73683;DHT22;72538;48.146;11.740;2023-08-30T11:39:01;23.90;64.30
73683;DHT22;72538;48.146;11.740;2023-08-30T11:41:27;22.90;66.10
73683;DHT22;72538;48.146;11.740;2023-08-30T11:43:53;22.40;67.10
73683;DHT22;72538;48.146;11.740;2023-08-30T11:46:21;22.00;69.70
73683;DHT22;72538;48.146;11.740;2023-08-30T11:48:48;21.80;69.00
73683;DHT22;72538;48.146;11.740;2023-08-30T11:51:15;21.60;69.30
73683;DHT22;72538;48.146;11.740;2023-08-30T11:53:42;21.80;69.90
73683;DHT22;72538;48.146;11.740;2023-08-30T11:56:08;22.10;72.70
73683;DHT22;72538;48.146;11.740;2023-08-30T11:58:35;22.20;68.00
73683;DHT22;72538;48.146;11.740;2023-08-30T12:01:03;22.10;73.60
73683;DHT22;72538;48.146;11.740;2023-08-30T12:03:30;22.00;72.90
73683;DHT22;72538;48.146;11.740;2023-08-30T12:05:57;22.10;72.80
73683;DHT22;72538;48.146;11.740;2023-08-30T12:08:26;22.60;74.80
73683;DHT22;72538;48.146;11.740;2023-08-30T12:10:53;24.00;68.00
73683;DHT22;72538;48.146;11.740;2023-08-30T12:13:26;25.60;64.10
73683;DHT22;72538;48.146;11.740;2023-08-30T12:15:53;26.90;59.70
73683;DHT22;72538;48.146;11.740;2023-08-30T12:18:27;27.70;54.40
73683;DHT22;72538;48.146;11.740;2023-08-30T12:23:29;29.90;53.10
73683;DHT22;72538;48.146;11.740;2023-08-30T12:26:09;31.20;50.70
73683;DHT22;72538;48.146;11.740;2023-08-30T12:28:40;30.60;44.90
73683;DHT22;72538;48.146;11.740;2023-08-30T12:31:06;28.80;47.30
73683;DHT22;72538;48.146;11.740;2023-08-30T12:33:33;27.00;49.60
73683;DHT22;72538;48.146;11.740;2023-08-30T12:35:59;26.30;54.60
73683;DHT22;72538;48.146;11.740;2023-08-30T12:38:25;28.00;51.70
73683;DHT22;72538;48.146;11.740;2023-08-30T12:40:56;29.10;49.50
73683;DHT22;72538;48.146;11.740;2023-08-30T12:43:20;29.40;46.60
73683;DHT22;72538;48.146;11.740;2023-08-30T12:45:46;28.10;46.60
73683;DHT22;72538;48.146;11.740;2023-08-30T12:48:13;26.70;47.00
73683;DHT22;72538;48.146;11.740;2023-08-30T12:50:42;25.40;50.30
73683;DHT22;72538;48.146;11.740;2023-08-30T12:53:08;24.20;55.60
73683;DHT22;72538;48.146;11.740;2023-08-30T12:55:35;23.30;56.50
73683;DHT22;72538;48.146;11.740;2023-08-30T12:58:01;22.50;60.50
73683;DHT22;72538;48.146;11.740;2023-08-30T13:00:27;21.80;61.90
73683;DHT22;72538;48.146;11.740;2023-08-30T13:02:53;21.40;67.00
73683;DHT22;72538;48.146;11.740;2023-08-30T13:05:18;20.70;70.10
73683;DHT22;72538;48.146;11.740;2023-08-30T13:07:45;20.20;73.30
73683;DHT22;72538;48.146;11.740;2023-08-30T13:10:11;20.00;76.80
73683;DHT22;72538;48.146;11.740;2023-08-30T13:12:37;19.80;79.00
73683;DHT22;72538;48.146;11.740;2023-08-30T13:15:04;19.40;81.30
73683;DHT22;72538;48.146;11.740;2023-08-30T13:17:30;19.00;81.40
73683;DHT22;72538;48.146;11.740;2023-08-30T13:19:56;18.70;88.50
73683;DHT22;72538;48.146;11.740;2023-08-30T13:22:24;18.50;87.50
73683;DHT22;72538;48.146;11.740;2023-08-30T13:24:50;18.40;89.60
73683;DHT22;72538;48.146;11.740;2023-08-30T13:27:16;18.40;91.50
73683;DHT22;72538;48.146;11.740;2023-08-30T13:29:42;18.30;92.70
73683;DHT22;72538;48.146;11.740;2023-08-30T13:32:07;18.10;93.10
73683;DHT22;72538;48.146;11.740;2023-08-30T13:34:33;18.00;94.50
73683;DHT22;72538;48.146;11.740;2023-08-30T13:36:59;17.90;94.30
73683;DHT22;72538;48.146;11.740;2023-08-30T13:39:24;17.80;94.90
73683;DHT22;72538;48.146;11.740;2023-08-30T13:41:50;17.80;95.50
73683;DHT22;72538;48.146;11.740;2023-08-30T13:44:16;17.80;95.80
73683;DHT22;72538;48.146;11.740;2023-08-30T13:46:43;17.70;94.50
73683;DHT22;72538;48.146;11.740;2023-08-30T13:49:09;17.80;95.20
73683;DHT22;72538;48.146;11.740;2023-08-30T13:51:35;17.90;94.20
73683;DHT22;72538;48.146;11.740;2023-08-30T13:54:02;17.90;94.10
73683;DHT22;72538;48.146;11.740;2023-08-30T13:56:28;18.00;93.10
73683;DHT22;72538;48.146;11.740;2023-08-30T13:58:56;18.10;92.40
73683;DHT22;72538;48.146;11.740;2023-08-30T14:01:22;18.10;92.10
73683;DHT22;72538;48.146;11.740;2023-08-30T14:03:48;18.30;92.50
73683;DHT22;72538;48.146;11.740;2023-08-30T14:06:13;18.10;92.70
73683;DHT22;72538;48.146;11.740;2023-08-30T14:08:39;18.10;94.00
73683;DHT22;72538;48.146;11.740;2023-08-30T14:11:05;17.90;95.80
73683;DHT22;72538;48.146;11.740;2023-08-30T14:13:31;17.90;96.40
73683;DHT22;72538;48.146;11.740;2023-08-30T14:15:59;17.90;96.80
73683;DHT22;72538;48.146;11.740;2023-08-30T14:18:26;17.70;98.20
73683;DHT22;72538;48.146;11.740;2023-08-30T14:20:57;17.50;99.90
73683;DHT22;72538;48.146;11.740;2023-08-30T14:23:26;17.30;99.90
73683;DHT22;72538;48.146;11.740;2023-08-30T14:25:59;17.10;99.90
73683;DHT22;72538;48.146;11.740;2023-08-30T14:28:26;16.90;99.90
73683;DHT22;72538;48.146;11.740;2023-08-30T14:30:53;16.70;99.90
73683;DHT22;72538;48.146;11.740;2023-08-30T14:33:19;16.60;99.90
73683;DHT22;72538;48.146;11.740;2023-08-30T14:35:46;16.50;99.90
73683;DHT22;72538;48.146;11.740;2023-08-30T14:38:12;16.40;99.90
73683;DHT22;72538;48.146;11.740;2023-08-30T14:40:37;16.40;99.90
73683;DHT22;72538;48.146;11.740;2023-08-30T14:43:04;16.40;99.90
73683;DHT22;72538;48.146;11.740;2023-08-30T14:45:30;16.40;99.90
73683;DHT22;72538;48.146;11.740;2023-08-30T14:47:56;16.30;99.90
73683;DHT22;72538;48.146;11.740;2023-08-30T14:50:22;16.30;99.90
73683;DHT22;72538;48.146;11.740;2023-08-30T14:52:48;16.30;99.90
73683;DHT22;72538;48.146;11.740;2023-08-30T14:55:14;16.30;99.90
73683;DHT22;72538;48.146;11.740;2023-08-30T14:57:40;16.30;99.90
73683;DHT22;72538;48.146;11.740;2023-08-30T15:00:07;16.30;99.90
73683;DHT22;72538;48.146;11.740;2023-08-30T15:02:33;16.40;99.90
73683;DHT22;72538;48.146;11.740;2023-08-30T15:04:59;16.50;99.90
73683;DHT22;72538;48.146;11.740;2023-08-30T15:07:25;16.50;99.90
73683;DHT22;72538;48.146;11.740;2023-08-30T15:09:50;16.60;99.90
73683;DHT22;72538;48.146;11.740;2023-08-30T15:12:16;16.60;99.90
73683;DHT22;72538;48.146;11.740;2023-08-30T15:14:42;16.60;99.90
73683;DHT22;72538;48.146;11.740;2023-08-30T15:17:09;16.70;99.90
73683;DHT22;72538;48.146;11.740;2023-08-30T15:19:36;16.80;99.90
73683;DHT22;72538;48.146;11.740;2023-08-30T15:22:02;16.90;99.90
73683;DHT22;72538;48.146;11.740;2023-08-30T15:24:28;17.00;99.90